ADDS METAR Data INFO
IDs: Format: Raw Decoded Include TAF

Data at: 1503 UTC 23 Oct 2017

KEKO 231456Z AUTO 02004KT 10SM SCT048 03/M01 A3061 RMK AO2 SLP360 T00281011 53018
KEKO 231356Z AUTO 00000KT 10SM CLR 01/M02 A3058 RMK AO2 SLP350 T00111022
KEKO 231256Z AUTO 00000KT 10SM CLR 02/M02 A3056 RMK AO2 SLP344 T00171022
KEKO 231156Z AUTO 00000KT 10SM CLR 02/M02 A3055 RMK AO2 SLP333 T00171017 10072 20000 51009
KEKO 231056Z AUTO 18004KT 10SM CLR 01/M03 A3053 RMK AO2 SLP325 T00061028
KEKO 230956Z AUTO 09003KT 10SM CLR 03/M02 A3053 RMK AO2 SLP324 T00331017
KEKO 230856Z AUTO 06004KT 10SM CLR 04/M02 A3052 RMK AO2 SLP314 T00441017 53007
KEKO 230756Z AUTO 00000KT 10SM CLR 04/M02 A3050 RMK AO2 SLP311 T00391017 402061022
KEKO 230656Z AUTO 00000KT 10SM CLR 06/M01 A3050 RMK AO2 SLP309 T00611011
KEKO 230556Z AUTO 35004KT 10SM CLR 07/M02 A3049 RMK AO2 SLP307 T00721017 10183 20056 53014
KEKO 230456Z AUTO 28004KT 10SM CLR 07/M02 A3047 RMK AO2 SLP310 T00721022
KEKO 230356Z AUTO 28006KT 10SM CLR 09/M02 A3046 RMK AO2 SLP313 T00941017
KEKO 230256Z AUTO 27008KT 10SM CLR 13/M02 A3045 RMK AO2 SLP305 T01331017 53018
KEKO 230156Z AUTO 28009KT 10SM CLR 15/M02 A3043 RMK AO2 SLP300 T01501022
KEKO 230056Z AUTO 23009KT 10SM CLR 15/M02 A3039 RMK AO2 SLP288 T01501022
KEKO 222356Z AUTO 21007KT 10SM BKN070 18/M02 A3039 RMK AO2 SLP279 T01781022 10206 20156 53002
KEKO 222256Z AUTO 26009KT 10SM CLR 20/M04 A3039 RMK AO2 SLP275 T02001039
KEKO 222156Z AUTO 24007KT 10SM FEW060 SCT080 19/M03 A3038 RMK AO2 SLP271 T01891033
KEKO 222056Z AUTO 24011G19KT 10SM CLR 19/M05 A3038 RMK AO2 SLP275 T01941050 56012
KEKO 221956Z AUTO 21013G22KT 10SM CLR 18/M03 A3038 RMK AO2 SLP276 T01781028
KEKO 221856Z AUTO 24014KT 10SM CLR 18/M02 A3041 RMK AO2 SLP280 T01781017
KEKO 221756Z AUTO 26009KT 10SM CLR 16/01 A3042 RMK AO2 SLP287 T01560006 10156 21022 50007
KEKO 221656Z AUTO VRB03KT 10SM CLR 10/01 A3042 RMK AO2 SLP294 T01000006
KEKO 221556Z AUTO 20006KT 10SM CLR 04/M01 A3042 RMK AO2 SLP305 T00391011
KEKO 221456Z AUTO 27003KT 10SM CLR 01/M03 A3039 RMK AO2 SLP296 T00061033 53010
KEKO 221356Z AUTO 00000KT 10SM CLR M01/M04 A3036 RMK AO2 SLP286 T10111044
KEKO 221256Z AUTO 23003KT 10SM CLR M02/M04 A3037 RMK AO2 SLP289 T10171044
KEKO 221156Z AUTO 00000KT 10SM CLR M01/M04 A3036 RMK AO2 SLP282 T10061039 10044 21011 53008
KEKO 221056Z AUTO 01003KT 10SM CLR M01/M04 A3034 RMK AO2 SLP275 T10061039
KEKO 220956Z AUTO 00000KT 10SM CLR 01/M03 A3033 RMK AO2 SLP269 T00111033
KEKO 220856Z AUTO 24003KT 10SM CLR M01/M04 A3033 RMK AO2 SLP271 T10111044 53000
KEKO 220756Z AUTO 00000KT 10SM CLR 01/M03 A3033 RMK AO2 SLP270 T00111033 401221072
KEKO 220656Z AUTO 00000KT 10SM CLR 03/M02 A3033 RMK AO2 SLP269 T00331022
KEKO 220556Z AUTO 00000KT 10SM CLR 04/M02 A3033 RMK AO2 SLP269 T00441022 10106 20039 53006
KEKO 220456Z AUTO 11003KT 10SM FEW110 06/M02 A3032 RMK AO2 SLP268 T00561017
KEKO 220356Z AUTO 28003KT 10SM FEW060 06/M02 A3032 RMK AO2 SLP277 T00611022